Time;durP1;ratioP1;P1;durP2;ratioP2;P2;SDS_P1;SDS_P2;PMS_P1;PMS_P2;Temp;Humidity;BMP_temperature;BMP_pressure;BME280_temperature;BME280_humidity;BME280_pressure;Samples;Min_cycle;Max_cycle;Signal;HPM_P1;HPM_P2
2023/05/08 00:00:01;;;;;;;9.27;4.10;;;;;;;;;;5032035;28;20053;-75
2023/05/08 00:02:27;;;;;;;6.88;3.42;;;;;;;;;;5032460;28;20598;-71
2023/05/08 00:04:52;;;;;;;6.80;3.80;;;;;;;;;;5032374;28;20130;-73
2023/05/08 00:07:17;;;;;;;6.10;3.88;;;;;;;;;;5034600;28;20119;-75
2023/05/08 00:09:43;;;;;;;5.20;3.75;;;;;;;;;;5055033;28;20106;-73
2023/05/08 00:12:08;;;;;;;6.95;4.18;;;;;;;;;;5056039;28;20025;-75
2023/05/08 00:14:34;;;;;;;8.35;4.20;;;;;;;;;;5055737;28;20076;-72
2023/05/08 00:17:01;;;;;;;6.72;3.90;;;;;;;;;;5056003;28;20051;-74
2023/05/08 00:19:26;;;;;;;6.43;4.10;;;;;;;;;;5043818;28;20041;-74
2023/05/08 00:21:51;;;;;;;5.93;4.15;;;;;;;;;;5027230;28;20030;-72
2023/05/08 00:24:17;;;;;;;6.80;3.95;;;;;;;;;;5024517;28;20076;-75
2023/05/08 00:26:43;;;;;;;6.88;4.20;;;;;;;;;;5026040;28;20037;-68
2023/05/08 00:29:08;;;;;;;6.20;4.07;;;;;;;;;;5025440;28;20464;-74
2023/05/08 00:31:34;;;;;;;6.35;4.30;;;;;;;;;;5024513;28;20084;-73
2023/05/08 00:33:59;;;;;;;7.28;4.00;;;;;;;;;;5026269;28;20036;-74
2023/05/08 00:36:25;;;;;;;5.93;3.70;;;;;;;;;;5028789;28;20029;-74
2023/05/08 00:38:50;;;;;;;5.32;3.90;;;;;;;;;;5035645;28;20018;-71
2023/05/08 00:41:15;;;;;;;9.07;4.07;;;;;;;;;;5035602;28;20379;-71
2023/05/08 00:43:41;;;;;;;5.80;4.07;;;;;;;;;;5035366;28;20480;-74
2023/05/08 00:46:08;;;;;;;6.97;4.18;;;;;;;;;;5035659;28;20033;-73
2023/05/08 00:48:35;;;;;;;7.78;4.40;;;;;;;;;;5035523;28;20036;-75
2023/05/08 00:51:03;;;;;;;6.57;4.13;;;;;;;;;;5035452;28;20029;-75
2023/05/08 00:53:30;;;;;;;6.50;3.80;;;;;;;;;;5035371;28;20463;-76
2023/05/08 00:55:57;;;;;;;8.07;4.15;;;;;;;;;;5035401;28;20033;-76
2023/05/08 00:58:26;;;;;;;8.02;4.20;;;;;;;;;;5034709;28;20053;-73
2023/05/08 01:00:54;;;;;;;9.63;4.35;;;;;;;;;;5030313;28;20094;-70
2023/05/08 01:03:19;;;;;;;6.18;4.00;;;;;;;;;;5023518;28;20083;-69
2023/05/08 01:05:45;;;;;;;6.75;4.15;;;;;;;;;;5024709;28;20021;-69
2023/05/08 01:08:10;;;;;;;5.20;3.90;;;;;;;;;;5023191;28;20097;-71
2023/05/08 01:10:54;;;;;;;5.22;3.65;;;;;;;;;;5023840;28;20451;-71
2023/05/08 01:13:56;;;;;;;8.43;4.10;;;;;;;;;;5024098;28;20030;-75
2023/05/08 01:16:47;;;;;;;6.18;4.18;;;;;;;;;;5024583;28;20030;-76
2023/05/08 01:19:15;;;;;;;6.65;3.95;;;;;;;;;;5023038;28;20022;-75
2023/05/08 01:21:49;;;;;;;8.57;4.10;;;;;;;;;;5023146;28;20037;-76
2023/05/08 01:24:14;;;;;;;6.80;4.10;;;;;;;;;;5023456;28;20129;-74
2023/05/08 01:27:02;;;;;;;8.50;4.78;;;;;;;;;;5022765;28;20442;-75
2023/05/08 01:29:39;;;;;;;7.70;4.03;;;;;;;;;;5022151;28;20506;-76
2023/05/08 01:32:16;;;;;;;6.40;4.28;;;;;;;;;;5015137;28;20026;-75
2023/05/08 01:34:50;;;;;;;8.50;4.53;;;;;;;;;;5014833;28;20160;-76
2023/05/08 01:37:25;;;;;;;6.22;4.20;;;;;;;;;;5029899;28;20475;-76
2023/05/08 01:40:00;;;;;;;6.97;4.40;;;;;;;;;;5034680;28;20534;-76
2023/05/08 01:42:45;;;;;;;6.82;4.28;;;;;;;;;;5034317;28;20151;-76
2023/05/08 01:45:20;;;;;;;6.97;4.47;;;;;;;;;;5034407;28;20033;-75
2023/05/08 01:47:51;;;;;;;6.38;4.68;;;;;;;;;;5034474;28;20026;-76
2023/05/08 01:50:33;;;;;;;9.15;4.75;;;;;;;;;;5034560;28;20029;-76
2023/05/08 01:53:17;;;;;;;7.68;4.90;;;;;;;;;;5034413;28;20025;-74
2023/05/08 01:55:43;;;;;;;7.95;5.20;;;;;;;;;;5034131;28;20083;-76
2023/05/08 01:58:10;;;;;;;8.82;4.90;;;;;;;;;;5034363;28;20045;-73
2023/05/08 02:00:39;;;;;;;7.57;4.97;;;;;;;;;;5034023;28;20125;-75
2023/05/08 02:03:06;;;;;;;8.80;5.28;;;;;;;;;;5034229;28;20430;-75
2023/05/08 02:05:35;;;;;;;11.20;6.15;;;;;;;;;;5034291;28;20424;-75
2023/05/08 02:08:02;;;;;;;10.48;5.90;;;;;;;;;;5034218;28;20030;-72
2023/05/08 02:10:28;;;;;;;11.70;6.10;;;;;;;;;;5033816;28;20125;-75
2023/05/08 02:12:55;;;;;;;9.70;5.30;;;;;;;;;;5033924;28;20025;-75
2023/05/08 02:15:23;;;;;;;9.98;5.80;;;;;;;;;;5033977;28;20032;-76
2023/05/08 02:17:49;;;;;;;9.38;5.72;;;;;;;;;;5033873;28;20037;-75
2023/05/08 02:20:15;;;;;;;11.48;6.50;;;;;;;;;;5033509;28;20113;-73
2023/05/08 02:22:46;;;;;;;9.20;6.07;;;;;;;;;;5033974;28;20068;-76
2023/05/08 02:25:14;;;;;;;9.85;7.20;;;;;;;;;;5032339;28;20398;-76
2023/05/08 02:27:45;;;;;;;12.43;8.32;;;;;;;;;;5033545;28;20045;-75
2023/05/08 02:30:16;;;;;;;11.82;8.60;;;;;;;;;;5033628;28;20029;-74
2023/05/08 02:32:43;;;;;;;13.70;8.70;;;;;;;;;;5033588;28;20487;-76
2023/05/08 02:35:14;;;;;;;12.82;8.88;;;;;;;;;;5032343;28;20387;-76
2023/05/08 02:37:49;;;;;;;13.10;9.13;;;;;;;;;;5033459;28;20040;-75
2023/05/08 02:40:16;;;;;;;14.23;8.68;;;;;;;;;;5033222;28;20022;-74
2023/05/08 02:42:43;;;;;;;13.55;9.70;;;;;;;;;;5033687;28;20034;-75
2023/05/08 02:45:10;;;;;;;11.23;9.20;;;;;;;;;;5033339;28;20214;-75
2023/05/08 02:48:07;;;;;;;14.02;9.25;;;;;;;;;;5033309;28;20391;-75
2023/05/08 02:50:58;;;;;;;12.98;9.30;;;;;;;;;;5033307;28;20040;-70
2023/05/08 02:53:36;;;;;;;12.80;8.45;;;;;;;;;;5032937;28;20471;-68
2023/05/08 02:56:10;;;;;;;13.52;9.32;;;;;;;;;;5033272;28;20531;-75
2023/05/08 02:58:53;;;;;;;28.98;15.93;;;;;;;;;;5033067;28;20021;-74
2023/05/08 03:01:32;;;;;;;14.82;9.52;;;;;;;;;;5033166;28;20029;-75
2023/05/08 03:04:08;;;;;;;15.85;9.43;;;;;;;;;;5033083;28;20064;-75
2023/05/08 03:06:41;;;;;;;13.90;9.23;;;;;;;;;;5032925;28;20017;-74
2023/05/08 03:09:13;;;;;;;13.15;8.98;;;;;;;;;;5032773;28;20372;-74
2023/05/08 03:11:42;;;;;;;9.93;7.97;;;;;;;;;;5033012;28;20025;-74
2023/05/08 03:14:11;;;;;;;11.68;8.40;;;;;;;;;;5033010;28;20036;-72
2023/05/08 03:16:40;;;;;;;13.43;8.38;;;;;;;;;;5032674;28;20064;-73
2023/05/08 03:19:09;;;;;;;10.68;7.72;;;;;;;;;;5032789;28;20098;-74
2023/05/08 03:21:37;;;;;;;13.10;8.70;;;;;;;;;;5029512;28;20497;-74
2023/05/08 03:24:04;;;;;;;10.38;8.00;;;;;;;;;;5032553;28;20033;-73
2023/05/08 03:26:29;;;;;;;12.80;8.73;;;;;;;;;;5032692;28;20112;-67
2023/05/08 03:28:56;;;;;;;12.40;7.53;;;;;;;;;;5032946;28;20119;-72
2023/05/08 03:31:23;;;;;;;16.85;8.57;;;;;;;;;;5032741;28;20494;-75
2023/05/08 03:33:52;;;;;;;11.95;8.48;;;;;;;;;;5032565;28;20116;-75
2023/05/08 03:36:18;;;;;;;13.50;8.18;;;;;;;;;;5032543;28;20036;-74
2023/05/08 03:38:43;;;;;;;11.02;8.05;;;;;;;;;;5032318;28;20017;-72
2023/05/08 03:41:10;;;;;;;12.82;9.05;;;;;;;;;;5032553;28;20029;-75
2023/05/08 03:43:36;;;;;;;11.23;8.07;;;;;;;;;;5033797;28;20025;-72
2023/05/08 03:46:05;;;;;;;11.07;7.43;;;;;;;;;;5036698;28;20526;-74
2023/05/08 03:48:33;;;;;;;11.77;8.40;;;;;;;;;;5036563;28;20120;-74
2023/05/08 03:51:03;;;;;;;11.85;7.95;;;;;;;;;;5036716;28;20406;-75
2023/05/08 03:53:30;;;;;;;12.25;7.82;;;;;;;;;;5036364;28;20428;-73
2023/05/08 03:55:57;;;;;;;16.10;8.55;;;;;;;;;;5036499;28;20032;-72
2023/05/08 03:58:41;;;;;;;10.93;7.50;;;;;;;;;;5036408;28;20074;-68
2023/05/08 04:01:12;;;;;;;11.30;7.45;;;;;;;;;;5036532;28;20026;-75
2023/05/08 04:03:43;;;;;;;10.75;7.20;;;;;;;;;;5036452;28;20493;-72
2023/05/08 04:06:33;;;;;;;11.30;7.10;;;;;;;;;;5036220;28;20391;-74
2023/05/08 04:09:08;;;;;;;11.75;7.60;;;;;;;;;;5035138;28;20151;-74
2023/05/08 04:12:02;;;;;;;10.30;7.40;;;;;;;;;;5036252;28;20438;-74
2023/05/08 04:14:34;;;;;;;10.07;7.00;;;;;;;;;;5036241;28;20092;-75
2023/05/08 04:17:03;;;;;;;10.75;6.68;;;;;;;;;;5036278;28;20079;-75
2023/05/08 04:19:35;;;;;;;10.55;6.97;;;;;;;;;;5035893;28;20063;-75
2023/05/08 04:22:06;;;;;;;9.88;6.35;;;;;;;;;;5035969;28;20403;-75
2023/05/08 04:24:34;;;;;;;8.70;6.95;;;;;;;;;;5036161;28;20047;-75
2023/05/08 04:27:01;;;;;;;8.50;6.43;;;;;;;;;;5035872;28;20079;-75
2023/05/08 04:29:27;;;;;;;10.85;7.15;;;;;;;;;;5035725;28;20029;-75
2023/05/08 04:31:53;;;;;;;9.77;6.30;;;;;;;;;;5035828;28;20105;-75
2023/05/08 04:34:18;;;;;;;13.45;6.75;;;;;;;;;;5035717;28;20033;-74
2023/05/08 04:36:44;;;;;;;10.43;6.72;;;;;;;;;;5035551;28;20106;-75
2023/05/08 04:39:10;;;;;;;10.18;6.57;;;;;;;;;;5035656;28;20075;-75
2023/05/08 04:41:35;;;;;;;11.77;6.60;;;;;;;;;;5035644;28;20033;-74
2023/05/08 04:44:02;;;;;;;9.38;5.93;;;;;;;;;;5035612;28;20116;-75
2023/05/08 04:46:28;;;;;;;11.68;6.90;;;;;;;;;;5035684;28;20107;-75
2023/05/08 04:48:53;;;;;;;9.60;5.85;;;;;;;;;;5035425;28;20407;-75
2023/05/08 04:51:18;;;;;;;9.55;5.65;;;;;;;;;;5035223;28;20021;-73
2023/05/08 04:53:44;;;;;;;8.55;5.82;;;;;;;;;;5034315;28;20490;-74
2023/05/08 04:56:09;;;;;;;8.55;5.60;;;;;;;;;;5034052;28;20021;-72
2023/05/08 04:58:35;;;;;;;10.88;6.07;;;;;;;;;;5033786;28;20129;-74
2023/05/08 05:01:04;;;;;;;8.43;5.13;;;;;;;;;;5035083;28;20049;-73
2023/05/08 05:03:29;;;;;;;8.35;5.15;;;;;;;;;;5035299;28;20475;-72
2023/05/08 05:05:59;;;;;;;9.05;5.43;;;;;;;;;;5035049;28;20033;-76
2023/05/08 05:08:24;;;;;;;8.30;5.50;;;;;;;;;;5035264;28;20133;-75
2023/05/08 05:10:50;;;;;;;12.45;5.78;;;;;;;;;;5035259;28;20522;-74
2023/05/08 05:13:15;;;;;;;8.00;5.57;;;;;;;;;;5034808;28;20036;-74
2023/05/08 05:15:42;;;;;;;8.65;5.65;;;;;;;;;;5034970;28;20052;-75
2023/05/08 05:18:07;;;;;;;10.82;5.60;;;;;;;;;;5034988;28;20113;-71
2023/05/08 05:20:33;;;;;;;12.57;5.70;;;;;;;;;;5034414;28;20503;-75
2023/05/08 05:22:58;;;;;;;8.98;5.95;;;;;;;;;;5034992;28;20026;-75
2023/05/08 05:25:24;;;;;;;11.82;5.82;;;;;;;;;;5034683;28;20068;-72
2023/05/08 05:27:49;;;;;;;7.57;5.25;;;;;;;;;;5034508;28;20076;-75
2023/05/08 05:30:15;;;;;;;11.40;5.68;;;;;;;;;;5034701;28;20025;-75
2023/05/08 05:32:40;;;;;;;12.73;5.32;;;;;;;;;;5034771;28;20033;-75
2023/05/08 05:35:06;;;;;;;9.90;5.25;;;;;;;;;;5034329;28;20025;-72
2023/05/08 05:37:31;;;;;;;8.73;5.35;;;;;;;;;;5034606;28;20026;-75
2023/05/08 05:39:57;;;;;;;9.80;5.22;;;;;;;;;;5034442;28;20490;-75
2023/05/08 05:42:22;;;;;;;12.35;5.47;;;;;;;;;;5034540;28;20379;-75
2023/05/08 05:44:48;;;;;;;9.63;5.32;;;;;;;;;;5034605;28;20029;-74
2023/05/08 05:47:13;;;;;;;8.15;4.05;;;;;;;;;;5034836;28;20029;-75
2023/05/08 05:49:41;;;;;;;7.63;4.40;;;;;;;;;;5041220;28;20479;-75
2023/05/08 05:52:07;;;;;;;7.72;4.70;;;;;;;;;;5042621;28;20048;-73
2023/05/08 05:54:32;;;;;;;6.72;4.10;;;;;;;;;;5048852;28;20150;-75
2023/05/08 05:56:58;;;;;;;6.93;4.85;;;;;;;;;;5037252;28;20024;-74
2023/05/08 05:59:23;;;;;;;7.60;4.70;;;;;;;;;;5045164;28;20060;-78
2023/05/08 06:01:49;;;;;;;7.28;4.60;;;;;;;;;;5050428;28;20033;-71
2023/05/08 06:04:14;;;;;;;6.72;3.75;;;;;;;;;;5061520;28;20036;-76
2023/05/08 06:06:40;;;;;;;6.57;3.85;;;;;;;;;;5055718;28;20471;-74
2023/05/08 06:09:06;;;;;;;9.05;4.38;;;;;;;;;;5050626;28;20366;-67
2023/05/08 06:11:31;;;;;;;7.93;4.38;;;;;;;;;;5037688;28;20100;-72
2023/05/08 06:13:57;;;;;;;8.15;4.40;;;;;;;;;;5040383;28;20025;-64
2023/05/08 06:16:23;;;;;;;7.03;4.28;;;;;;;;;;5042949;28;20028;-74
2023/05/08 06:18:49;;;;;;;8.48;4.18;;;;;;;;;;5048064;28;20025;-75
2023/05/08 06:21:15;;;;;;;6.63;3.70;;;;;;;;;;5036828;28;20034;-73
2023/05/08 06:23:41;;;;;;;9.73;3.42;;;;;;;;;;5048681;28;20050;-74
2023/05/08 06:26:07;;;;;;;7.57;4.20;;;;;;;;;;5041406;28;20119;-72
2023/05/08 06:28:32;;;;;;;9.82;4.00;;;;;;;;;;5041462;28;20029;-75
2023/05/08 06:30:58;;;;;;;6.65;3.83;;;;;;;;;;5048409;28;20110;-74
2023/05/08 06:33:23;;;;;;;9.15;3.83;;;;;;;;;;5036403;28;20068;-71
2023/05/08 06:35:49;;;;;;;4.35;2.30;;;;;;;;;;5047202;28;20036;-75
2023/05/08 06:38:15;;;;;;;4.43;2.35;;;;;;;;;;5033213;28;20474;-73
2023/05/08 06:40:44;;;;;;;3.38;2.10;;;;;;;;;;5033473;28;20080;-66
2023/05/08 06:43:10;;;;;;;2.75;1.63;;;;;;;;;;5035033;28;20111;-69
2023/05/08 06:45:35;;;;;;;4.13;1.60;;;;;;;;;;5011750;28;20105;-68
2023/05/08 06:48:01;;;;;;;2.88;2.00;;;;;;;;;;5011850;28;20026;-71
2023/05/08 06:50:26;;;;;;;3.13;1.92;;;;;;;;;;5011982;28;20414;-67
2023/05/08 06:52:52;;;;;;;2.58;1.92;;;;;;;;;;5012662;28;20022;-75
2023/05/08 06:55:17;;;;;;;6.38;1.90;;;;;;;;;;5012080;28;20629;-71
2023/05/08 06:57:43;;;;;;;3.38;1.90;;;;;;;;;;5012153;28;20096;-68
2023/05/08 07:00:09;;;;;;;3.92;1.63;;;;;;;;;;5011029;28;20479;-68
2023/05/08 07:02:34;;;;;;;3.20;1.52;;;;;;;;;;5012326;28;20040;-68
2023/05/08 07:05:00;;;;;;;2.10;1.40;;;;;;;;;;5011183;28;20125;-65
2023/05/08 07:07:25;;;;;;;4.70;2.10;;;;;;;;;;5011254;28;20490;-71
2023/05/08 07:09:51;;;;;;;2.10;1.45;;;;;;;;;;5011269;28;20148;-70
2023/05/08 07:12:16;;;;;;;2.63;1.70;;;;;;;;;;5011209;28;20037;-73
2023/05/08 07:14:42;;;;;;;3.00;1.92;;;;;;;;;;5011302;28;20037;-75
2023/05/08 07:17:08;;;;;;;6.28;2.28;;;;;;;;;;5012221;28;20026;-73
2023/05/08 07:19:37;;;;;;;3.53;2.33;;;;;;;;;;5015092;28;20032;-74
2023/05/08 07:22:03;;;;;;;3.90;2.53;;;;;;;;;;5032818;28;20065;-75
2023/05/08 07:24:29;;;;;;;2.28;1.58;;;;;;;;;;5032738;28;20540;-75
2023/05/08 07:26:55;;;;;;;4.32;2.13;;;;;;;;;;5032390;28;20073;-70
2023/05/08 07:29:20;;;;;;;4.60;2.58;;;;;;;;;;5032597;28;20032;-76
2023/05/08 07:31:47;;;;;;;5.18;2.20;;;;;;;;;;5032867;28;20033;-71
2023/05/08 07:34:13;;;;;;;3.80;2.25;;;;;;;;;;5032898;28;20029;-71
2023/05/08 07:36:39;;;;;;;4.03;2.40;;;;;;;;;;5032395;28;20031;-71
2023/05/08 07:39:04;;;;;;;3.08;1.90;;;;;;;;;;5032448;28;20467;-75
2023/05/08 07:41:30;;;;;;;4.78;2.20;;;;;;;;;;5032646;28;20027;-75
2023/05/08 07:43:55;;;;;;;3.20;2.10;;;;;;;;;;5032357;28;20053;-75
2023/05/08 07:46:21;;;;;;;3.50;2.20;;;;;;;;;;5032452;28;20132;-74
2023/05/08 07:48:46;;;;;;;4.10;2.55;;;;;;;;;;5032591;28;20371;-71
2023/05/08 07:51:13;;;;;;;3.70;2.42;;;;;;;;;;5032350;28;20029;-66
2023/05/08 07:53:38;;;;;;;2.92;2.10;;;;;;;;;;5031094;28;20036;-74
2023/05/08 07:56:04;;;;;;;2.63;2.20;;;;;;;;;;5032625;28;20017;-66
2023/05/08 07:58:30;;;;;;;3.92;2.78;;;;;;;;;;5032144;28;20025;-76
2023/05/08 08:00:55;;;;;;;7.05;2.63;;;;;;;;;;5032982;28;20459;-71
2023/05/08 08:03:21;;;;;;;4.80;2.80;;;;;;;;;;5032797;28;20101;-72
2023/05/08 08:05:46;;;;;;;4.22;2.38;;;;;;;;;;5032656;28;20108;-74
2023/05/08 08:08:12;;;;;;;5.32;2.30;;;;;;;;;;5032562;28;20030;-74
2023/05/08 08:10:38;;;;;;;4.43;2.42;;;;;;;;;;5032458;28;20391;-74
2023/05/08 08:13:04;;;;;;;5.20;2.58;;;;;;;;;;5032125;28;20036;-69
2023/05/08 08:15:29;;;;;;;3.90;1.95;;;;;;;;;;5032494;28;20025;-76
2023/05/08 08:17:55;;;;;;;4.10;2.47;;;;;;;;;;5032332;28;20110;-71
2023/05/08 08:20:21;;;;;;;8.25;2.67;;;;;;;;;;5032024;28;20417;-71
2023/05/08 08:22:46;;;;;;;3.90;2.05;;;;;;;;;;5032229;28;20414;-74
2023/05/08 08:25:12;;;;;;;5.80;2.28;;;;;;;;;;5032369;28;20029;-68
2023/05/08 08:27:37;;;;;;;2.42;1.67;;;;;;;;;;5014411;28;20045;-75
2023/05/08 08:30:04;;;;;;;6.65;2.50;;;;;;;;;;5034072;28;20168;-67
2023/05/08 08:32:29;;;;;;;4.78;2.28;;;;;;;;;;5036038;28;20033;-69
2023/05/08 08:34:55;;;;;;;3.63;2.25;;;;;;;;;;5035782;28;20026;-65
2023/05/08 08:37:21;;;;;;;3.38;2.40;;;;;;;;;;5035628;28;20030;-67
2023/05/08 08:39:47;;;;;;;4.03;2.15;;;;;;;;;;5035620;28;20025;-64
2023/05/08 08:42:13;;;;;;;3.75;2.22;;;;;;;;;;5035682;28;20059;-71
2023/05/08 08:44:38;;;;;;;4.15;2.20;;;;;;;;;;5035857;28;20033;-74
2023/05/08 08:47:05;;;;;;;6.30;2.28;;;;;;;;;;5035629;28;20024;-69
2023/05/08 08:49:40;;;;;;;3.95;2.13;;;;;;;;;;5035333;28;20022;-69
2023/05/08 08:52:14;;;;;;;5.82;2.10;;;;;;;;;;5035515;28;20102;-71
2023/05/08 08:54:43;;;;;;;5.10;2.20;;;;;;;;;;5035479;28;20029;-72
2023/05/08 08:57:09;;;;;;;4.22;2.25;;;;;;;;;;5035225;28;20079;-67
2023/05/08 08:59:38;;;;;;;3.63;2.35;;;;;;;;;;5035373;28;20021;-65
2023/05/08 09:02:10;;;;;;;4.65;1.92;;;;;;;;;;5035602;28;20236;-74
2023/05/08 09:04:36;;;;;;;3.90;1.90;;;;;;;;;;5035247;28;20025;-64
2023/05/08 09:07:04;;;;;;;3.08;1.90;;;;;;;;;;5035449;28;20082;-74
2023/05/08 09:09:32;;;;;;;4.15;2.40;;;;;;;;;;5035026;28;20087;-67
2023/05/08 09:11:58;;;;;;;2.08;1.70;;;;;;;;;;5035003;28;20026;-66
2023/05/08 09:14:25;;;;;;;4.38;2.00;;;;;;;;;;5035182;28;20494;-72
2023/05/08 09:16:52;;;;;;;2.85;2.00;;;;;;;;;;5035164;28;20083;-63
2023/05/08 09:19:18;;;;;;;3.97;1.90;;;;;;;;;;5034933;28;20035;-63
2023/05/08 09:21:44;;;;;;;2.38;1.80;;;;;;;;;;5034660;28;20370;-65
2023/05/08 09:24:09;;;;;;;4.03;2.10;;;;;;;;;;5034912;28;20025;-67
2023/05/08 09:26:37;;;;;;;2.72;1.80;;;;;;;;;;5034445;28;20049;-64
2023/05/08 09:29:09;;;;;;;3.90;2.20;;;;;;;;;;5034679;28;20087;-65
2023/05/08 09:31:36;;;;;;;3.55;2.17;;;;;;;;;;5034877;28;20026;-69
2023/05/08 09:34:01;;;;;;;4.68;2.28;;;;;;;;;;5034710;28;20028;-63
2023/05/08 09:36:27;;;;;;;5.55;1.85;;;;;;;;;;5034685;28;20383;-66
2023/05/08 09:38:53;;;;;;;2.85;1.95;;;;;;;;;;5033366;28;20036;-74
2023/05/08 09:41:19;;;;;;;4.03;2.20;;;;;;;;;;5033869;28;20034;-71
2023/05/08 09:44:00;;;;;;;4.63;2.13;;;;;;;;;;5034825;28;20025;-69
2023/05/08 09:46:26;;;;;;;4.15;1.80;;;;;;;;;;5034661;28;20053;-65
2023/05/08 09:48:57;;;;;;;4.90;2.30;;;;;;;;;;5034619;28;20021;-66
2023/05/08 09:51:24;;;;;;;3.72;2.10;;;;;;;;;;5034639;28;20096;-65
2023/05/08 09:53:53;;;;;;;3.67;2.20;;;;;;;;;;5034134;28;20542;-68
2023/05/08 09:56:36;;;;;;;3.83;2.20;;;;;;;;;;5034643;28;20025;-66
2023/05/08 09:59:27;;;;;;;5.45;2.38;;;;;;;;;;5034467;28;20033;-73
2023/05/08 10:01:54;;;;;;;4.28;2.50;;;;;;;;;;5034281;28;20494;-68
2023/05/08 10:04:35;;;;;;;3.20;2.05;;;;;;;;;;5034160;28;20125;-73
2023/05/08 10:07:01;;;;;;;4.15;2.50;;;;;;;;;;5034258;28;20472;-74
2023/05/08 10:09:27;;;;;;;4.35;2.30;;;;;;;;;;5033944;28;20029;-69
2023/05/08 10:11:54;;;;;;;10.52;2.22;;;;;;;;;;5034027;28;20034;-72
2023/05/08 10:14:21;;;;;;;6.05;2.53;;;;;;;;;;5033991;28;20033;-73
2023/05/08 10:16:48;;;;;;;4.53;2.45;;;;;;;;;;5034085;28;20475;-73
2023/05/08 10:19:15;;;;;;;5.85;2.40;;;;;;;;;;5033639;28;20105;-69
2023/05/08 10:21:49;;;;;;;4.90;2.40;;;;;;;;;;5033772;28;20029;-71
2023/05/08 10:24:20;;;;;;;5.03;2.20;;;;;;;;;;5033817;28;20463;-69
2023/05/08 10:27:17;;;;;;;3.47;2.20;;;;;;;;;;5032301;28;20455;-73
2023/05/08 10:29:53;;;;;;;3.45;2.40;;;;;;;;;;5033675;28;20425;-74
2023/05/08 10:32:20;;;;;;;4.75;1.73;;;;;;;;;;5033686;28;20021;-69
2023/05/08 10:34:52;;;;;;;2.83;1.90;;;;;;;;;;5033583;28;20064;-72
2023/05/08 10:37:18;;;;;;;5.95;2.25;;;;;;;;;;5033241;28;20470;-69
2023/05/08 10:39:45;;;;;;;4.30;2.05;;;;;;;;;;5033350;28;20060;-74
2023/05/08 10:42:14;;;;;;;3.85;2.50;;;;;;;;;;5033347;28;20021;-74
2023/05/08 10:44:39;;;;;;;4.47;1.88;;;;;;;;;;5033452;28;20418;-71
2023/05/08 10:47:20;;;;;;;3.47;2.25;;;;;;;;;;5033508;28;20029;-72
2023/05/08 10:50:17;;;;;;;5.93;2.50;;;;;;;;;;5033157;28;20029;-75
2023/05/08 10:52:51;;;;;;;3.58;2.28;;;;;;;;;;5033132;28;20029;-75
2023/05/08 10:55:36;;;;;;;3.63;2.30;;;;;;;;;;5032999;28;20029;-73
2023/05/08 10:58:16;;;;;;;3.53;2.20;;;;;;;;;;5033087;28;20029;-73
2023/05/08 11:00:58;;;;;;;4.53;2.30;;;;;;;;;;5033045;28;20025;-69
2023/05/08 11:03:25;;;;;;;7.00;2.10;;;;;;;;;;5032920;28;20041;-73
2023/05/08 11:05:51;;;;;;;3.03;2.10;;;;;;;;;;5032879;28;20459;-73
2023/05/08 11:08:23;;;;;;;3.10;1.90;;;;;;;;;;5032737;28;20112;-69
2023/05/08 11:10:58;;;;;;;3.03;1.83;;;;;;;;;;5032938;28;20109;-72
2023/05/08 11:13:29;;;;;;;2.70;1.90;;;;;;;;;;5032743;28;20053;-74
2023/05/08 11:15:56;;;;;;;4.05;2.08;;;;;;;;;;5032750;28;20029;-74
2023/05/08 11:18:23;;;;;;;7.13;2.50;;;;;;;;;;5032780;28;20064;-73
2023/05/08 11:20:55;;;;;;;4.60;2.10;;;;;;;;;;5032416;28;20063;-72
2023/05/08 11:23:31;;;;;;;4.78;2.20;;;;;;;;;;5032479;28;20051;-73
2023/05/08 11:26:12;;;;;;;6.13;2.03;;;;;;;;;;5032674;28;20410;-70
2023/05/08 11:28:54;;;;;;;4.40;2.10;;;;;;;;;;5032487;28;20041;-75
2023/05/08 11:31:19;;;;;;;3.03;2.17;;;;;;;;;;5032664;28;20026;-75
2023/05/08 11:33:45;;;;;;;4.28;2.08;;;;;;;;;;5032949;28;20482;-72
2023/05/08 11:36:21;;;;;;;3.15;2.22;;;;;;;;;;5032356;28;20093;-65
2023/05/08 11:39:14;;;;;;;5.22;1.95;;;;;;;;;;5032523;28;20088;-66
2023/05/08 11:41:39;;;;;;;4.22;2.15;;;;;;;;;;5032570;28;20026;-67
2023/05/08 11:44:18;;;;;;;3.20;2.25;;;;;;;;;;5031220;28;20104;-69
2023/05/08 11:46:54;;;;;;;4.18;2.25;;;;;;;;;;5031291;28;20026;-67
2023/05/08 11:49:25;;;;;;;4.45;1.90;;;;;;;;;;5032600;28;20452;-64
2023/05/08 11:51:54;;;;;;;3.42;2.00;;;;;;;;;;5032156;28;20486;-70
2023/05/08 11:54:21;;;;;;;4.13;2.10;;;;;;;;;;5032144;28;20030;-65
2023/05/08 11:56:48;;;;;;;3.22;2.00;;;;;;;;;;5032563;28;20033;-65
2023/05/08 11:59:14;;;;;;;5.00;2.40;;;;;;;;;;5032234;28;20022;-64
2023/05/08 12:01:39;;;;;;;5.35;2.30;;;;;;;;;;5032282;28;20026;-62
2023/05/08 12:04:07;;;;;;;9.63;2.28;;;;;;;;;;5032666;28;20025;-65
2023/05/08 12:06:34;;;;;;;4.40;2.03;;;;;;;;;;5035994;28;20368;-66
2023/05/08 12:09:03;;;;;;;2.53;1.73;;;;;;;;;;5036044;28;20025;-75
2023/05/08 12:11:29;;;;;;;3.30;2.40;;;;;;;;;;5036249;28;20071;-68
2023/05/08 12:13:54;;;;;;;3.25;2.10;;;;;;;;;;5036121;28;20029;-73
2023/05/08 12:16:21;;;;;;;4.68;1.67;;;;;;;;;;5036224;28;20018;-65
2023/05/08 12:18:51;;;;;;;2.97;1.98;;;;;;;;;;5035959;28;20467;-67
2023/05/08 12:21:17;;;;;;;5.47;2.25;;;;;;;;;;5035851;28;20090;-72
2023/05/08 12:23:43;;;;;;;5.13;2.10;;;;;;;;;;5036044;28;20033;-73
2023/05/08 12:26:09;;;;;;;7.05;3.15;;;;;;;;;;5035950;28;20104;-72
2023/05/08 12:28:34;;;;;;;4.10;1.90;;;;;;;;;;5035958;28;20137;-65
2023/05/08 12:31:01;;;;;;;4.38;2.22;;;;;;;;;;5035931;28;20033;-66
2023/05/08 12:33:27;;;;;;;4.13;2.10;;;;;;;;;;5035486;28;20482;-70
2023/05/08 12:35:54;;;;;;;5.47;2.58;;;;;;;;;;5035584;28;20394;-70
2023/05/08 12:38:24;;;;;;;3.67;2.08;;;;;;;;;;5035579;28;20037;-70
2023/05/08 12:40:51;;;;;;;4.35;2.25;;;;;;;;;;5035632;28;20033;-72
2023/05/08 12:43:17;;;;;;;3.10;1.98;;;;;;;;;;5035567;28;20033;-71
2023/05/08 12:45:43;;;;;;;3.80;1.95;;;;;;;;;;5035471;28;20360;-67
2023/05/08 12:48:11;;;;;;;4.93;2.30;;;;;;;;;;5035285;28;20383;-67
2023/05/08 12:50:39;;;;;;;6.78;2.20;;;;;;;;;;5035295;28;20033;-73
2023/05/08 12:53:07;;;;;;;5.57;2.40;;;;;;;;;;5035476;28;20025;-66
2023/05/08 12:55:34;;;;;;;4.07;1.52;;;;;;;;;;5035137;28;20068;-72
2023/05/08 12:58:00;;;;;;;5.85;2.28;;;;;;;;;;5035276;28;20030;-67
2023/05/08 13:00:34;;;;;;;3.75;2.25;;;;;;;;;;5035138;28;20031;-71
2023/05/08 13:03:00;;;;;;;3.97;2.10;;;;;;;;;;5034687;28;20087;-71
2023/05/08 13:05:25;;;;;;;13.02;2.33;;;;;;;;;;5035123;28;20065;-72
2023/05/08 13:07:51;;;;;;;3.92;2.10;;;;;;;;;;5035221;28;20033;-72
2023/05/08 13:10:20;;;;;;;4.28;1.77;;;;;;;;;;5035120;28;20091;-74
2023/05/08 13:12:45;;;;;;;6.68;2.35;;;;;;;;;;5034959;28;20028;-72
2023/05/08 13:15:11;;;;;;;6.18;2.47;;;;;;;;;;5034827;28;20140;-73
2023/05/08 13:17:37;;;;;;;7.63;2.30;;;;;;;;;;5033520;28;20434;-73
2023/05/08 13:20:02;;;;;;;3.38;1.63;;;;;;;;;;5034780;28;20029;-75
2023/05/08 13:22:29;;;;;;;2.78;1.52;;;;;;;;;;5034999;28;20182;-75
2023/05/08 13:24:54;;;;;;;2.80;1.92;;;;;;;;;;5034795;28;20041;-75
2023/05/08 13:27:20;;;;;;;4.20;1.80;;;;;;;;;;5034528;28;20506;-69
2023/05/08 13:29:45;;;;;;;4.25;2.15;;;;;;;;;;5034770;28;20529;-73
2023/05/08 13:32:11;;;;;;;3.53;2.20;;;;;;;;;;5034797;28;20041;-75
2023/05/08 13:34:36;;;;;;;3.10;1.75;;;;;;;;;;5034491;28;20363;-73
2023/05/08 13:37:01;;;;;;;4.18;2.00;;;;;;;;;;5034405;28;20482;-74
2023/05/08 13:39:27;;;;;;;3.20;2.03;;;;;;;;;;5034509;28;20379;-73
2023/05/08 13:41:53;;;;;;;3.30;1.73;;;;;;;;;;5034450;28;20022;-69
2023/05/08 13:44:18;;;;;;;4.43;1.98;;;;;;;;;;5034299;28;20067;-72
2023/05/08 13:46:43;;;;;;;4.38;2.30;;;;;;;;;;5034240;28;20030;-74
2023/05/08 13:49:09;;;;;;;2.65;1.73;;;;;;;;;;5034353;28;20076;-63
2023/05/08 13:51:34;;;;;;;5.68;2.13;;;;;;;;;;5034396;28;20029;-73
2023/05/08 13:54:00;;;;;;;4.00;1.70;;;;;;;;;;5034216;28;20080;-72
2023/05/08 13:56:25;;;;;;;6.95;2.30;;;;;;;;;;5034273;28;20029;-72
2023/05/08 13:58:51;;;;;;;3.97;2.00;;;;;;;;;;5034185;28;20025;-74
2023/05/08 14:01:16;;;;;;;4.15;2.20;;;;;;;;;;5034062;28;20036;-73
2023/05/08 14:03:42;;;;;;;4.07;1.88;;;;;;;;;;5034057;28;20052;-73
2023/05/08 14:06:07;;;;;;;7.43;2.00;;;;;;;;;;5034134;28;20494;-75
2023/05/08 14:08:33;;;;;;;4.10;1.90;;;;;;;;;;5033919;28;20022;-71
2023/05/08 14:10:58;;;;;;;5.70;1.85;;;;;;;;;;5033997;28;20040;-75
2023/05/08 14:13:23;;;;;;;5.57;2.00;;;;;;;;;;5033947;28;20030;-70
2023/05/08 14:15:49;;;;;;;4.57;2.13;;;;;;;;;;5033702;28;20490;-72
2023/05/08 14:18:14;;;;;;;2.67;1.88;;;;;;;;;;5033761;28;20029;-71
2023/05/08 14:20:40;;;;;;;3.20;1.88;;;;;;;;;;5033433;28;20017;-70
2023/05/08 14:23:05;;;;;;;6.45;2.30;;;;;;;;;;5033625;28;20025;-66
2023/05/08 14:25:31;;;;;;;4.38;1.73;;;;;;;;;;5034080;28;20034;-69
2023/05/08 14:27:56;;;;;;;2.70;1.42;;;;;;;;;;5033105;28;20037;-70
2023/05/08 14:30:21;;;;;;;5.95;2.30;;;;;;;;;;5032049;28;20040;-64
2023/05/08 14:32:47;;;;;;;8.27;2.10;;;;;;;;;;5033580;28;20025;-69
2023/05/08 14:35:12;;;;;;;2.65;1.98;;;;;;;;;;5033506;28;20467;-73
2023/05/08 14:37:38;;;;;;;5.20;1.95;;;;;;;;;;5033384;28;20021;-70
2023/05/08 14:40:05;;;;;;;6.05;1.75;;;;;;;;;;5033469;28;20025;-67
2023/05/08 14:42:32;;;;;;;3.85;1.60;;;;;;;;;;5033260;28;20142;-73
2023/05/08 14:44:57;;;;;;;3.28;1.90;;;;;;;;;;5033177;28;20067;-72
2023/05/08 14:47:23;;;;;;;4.57;1.90;;;;;;;;;;5031763;28;20459;-66